createdAt,value
2022-08-18T00:01:34.947Z,21.19
2022-08-18T00:04:03.623Z,21.49
2022-08-18T00:06:30.825Z,21.44
2022-08-18T00:08:59.408Z,21.30
2022-08-18T00:11:26.757Z,21.18
2022-08-18T00:13:53.253Z,21.47
2022-08-18T00:16:19.785Z,21.58
2022-08-18T00:18:46.253Z,21.62
2022-08-18T00:21:12.782Z,21.46
2022-08-18T00:23:39.301Z,21.46
2022-08-18T00:26:06.079Z,20.96
2022-08-18T00:28:32.579Z,20.75
2022-08-18T00:30:59.066Z,21.01
2022-08-18T00:33:25.740Z,21.26
2022-08-18T00:35:52.282Z,21.17
2022-08-18T00:38:24.590Z,21.17
2022-08-18T00:40:53.172Z,21.01
2022-08-18T00:43:27.855Z,21.21
2022-08-18T00:45:54.452Z,21.20
2022-08-18T00:48:21.085Z,21.26
2022-08-18T00:50:57.370Z,20.97
2022-08-18T00:53:47.828Z,21.16
2022-08-18T00:56:24.847Z,21.31
2022-08-18T00:58:55.616Z,20.92
2022-08-18T01:01:23.627Z,21.16
2022-08-18T01:03:54.459Z,20.97
2022-08-18T01:06:33.512Z,21.06
2022-08-18T01:09:00.221Z,21.18
2022-08-18T01:11:28.209Z,20.94
2022-08-18T01:13:54.737Z,20.99
2022-08-18T01:16:53.809Z,20.95
2022-08-18T01:19:42.358Z,21.04
2022-08-18T01:22:17.747Z,20.93
2022-08-18T01:25:02.887Z,21.00
2022-08-18T01:27:32.023Z,20.73
2022-08-18T01:30:05.326Z,21.00
2022-08-18T01:32:31.820Z,20.80
2022-08-18T01:34:58.719Z,20.88
2022-08-18T01:37:25.588Z,20.73
2022-08-18T01:41:25.599Z,20.62
2022-08-18T01:42:39.975Z,20.47
2022-08-18T01:45:08.074Z,20.61
2022-08-18T01:47:47.363Z,20.81
2022-08-18T01:50:15.182Z,20.90
2022-08-18T01:52:41.680Z,20.72
2022-08-18T01:55:08.577Z,20.64
2022-08-18T01:57:45.086Z,20.62
2022-08-18T02:00:16.954Z,20.20
2022-08-18T02:02:43.574Z,20.25
2022-08-18T02:05:13.511Z,20.44
2022-08-18T02:07:40.242Z,20.31
2022-08-18T02:10:12.195Z,20.31
2022-08-18T02:12:42.424Z,20.44
2022-08-18T02:15:09.312Z,20.36
2022-08-18T02:17:41.535Z,20.48
2022-08-18T02:20:10.287Z,20.49
2022-08-18T02:22:37.866Z,20.44
2022-08-18T02:25:05.206Z,20.55
2022-08-18T02:27:34.256Z,20.49
2022-08-18T02:30:02.177Z,20.51
2022-08-18T02:32:29.492Z,20.50
2022-08-18T02:34:56.257Z,20.43
2022-08-18T02:37:23.057Z,20.45
2022-08-18T02:39:49.846Z,20.53
2022-08-18T02:42:16.566Z,20.47
2022-08-18T02:44:43.278Z,20.26
2022-08-18T02:47:09.946Z,20.25
2022-08-18T02:49:36.980Z,20.31
2022-08-18T02:52:04.179Z,20.27
2022-08-18T02:54:30.863Z,20.09
2022-08-18T02:56:57.577Z,20.21
2022-08-18T02:59:27.588Z,20.24
2022-08-18T03:01:55.933Z,20.25
2022-08-18T03:04:29.559Z,20.03
2022-08-18T03:06:58.404Z,20.08
2022-08-18T03:09:25.691Z,20.20
2022-08-18T03:11:53.510Z,20.25
2022-08-18T03:14:20.141Z,20.11
2022-08-18T03:16:54.180Z,19.86
2022-08-18T03:19:23.727Z,19.77
2022-08-18T03:21:50.283Z,19.73
2022-08-18T03:24:22.650Z,19.80
2022-08-18T03:26:50.689Z,19.90
2022-08-18T03:29:17.191Z,20.11
2022-08-18T03:31:45.500Z,20.02
2022-08-18T03:34:12.414Z,20.02
2022-08-18T03:36:39.649Z,19.85
2022-08-18T03:39:09.140Z,19.90
2022-08-18T03:41:57.495Z,20.06
2022-08-18T03:44:25.531Z,20.13
2022-08-18T03:46:52.214Z,20.13
2022-08-18T03:49:20.381Z,20.15
2022-08-18T03:51:47.196Z,20.14
2022-08-18T03:54:16.448Z,19.91
2022-08-18T03:56:44.805Z,20.06
2022-08-18T03:59:18.029Z,20.15
2022-08-18T04:01:46.267Z,20.22
2022-08-18T04:04:17.530Z,20.10
2022-08-18T04:06:54.460Z,19.84
2022-08-18T04:09:22.949Z,20.19
2022-08-18T04:11:49.727Z,20.17
2022-08-18T04:14:24.133Z,20.05
2022-08-18T04:16:51.232Z,20.02
2022-08-18T04:19:26.614Z,20.41
2022-08-18T04:21:56.240Z,20.62
2022-08-18T04:24:22.829Z,20.43
2022-08-18T04:26:50.075Z,20.46
2022-08-18T04:29:18.345Z,20.62
2022-08-18T04:31:45.157Z,20.75
2022-08-18T04:34:12.464Z,20.74
2022-08-18T04:36:39.427Z,20.71
2022-08-18T04:39:08.213Z,20.76
2022-08-18T04:41:36.377Z,20.81
2022-08-18T04:44:08.591Z,21.11
2022-08-18T04:46:43.781Z,21.16
2022-08-18T04:49:11.990Z,21.23
2022-08-18T04:52:37.140Z,21.13
2022-08-18T04:54:28.552Z,21.16
2022-08-18T04:56:55.183Z,21.22
2022-08-18T04:59:21.731Z,20.97
2022-08-18T05:01:48.483Z,20.94
2022-08-18T05:04:17.424Z,21.27
2022-08-18T05:06:44.821Z,21.11
2022-08-18T05:09:12.807Z,20.98
2022-08-18T05:11:44.609Z,20.76
2022-08-18T05:14:11.504Z,21.13
2022-08-18T05:16:47.832Z,20.92
2022-08-18T05:19:23.369Z,20.46
2022-08-18T05:22:02.994Z,20.42
2022-08-18T05:24:37.316Z,20.07
2022-08-18T05:27:04.737Z,20.48
2022-08-18T05:29:41.532Z,20.35
2022-08-18T05:32:12.126Z,20.53
2022-08-18T05:34:59.808Z,21.00
2022-08-18T05:37:54.354Z,21.03
2022-08-18T05:40:24.407Z,21.14
2022-08-18T05:42:51.369Z,21.10
2022-08-18T05:45:19.141Z,21.28
2022-08-18T05:47:45.828Z,21.44
2022-08-18T05:50:17.240Z,21.90
2022-08-18T05:52:54.143Z,22.06
2022-08-18T05:55:58.173Z,22.07
2022-08-18T05:58:33.635Z,22.36
2022-08-18T06:01:08.867Z,22.49
2022-08-18T06:03:46.178Z,22.59
2022-08-18T06:06:18.678Z,22.54
2022-08-18T06:08:48.421Z,22.39
2022-08-18T06:11:17.388Z,22.45
2022-08-18T06:13:49.858Z,22.58
2022-08-18T06:16:48.941Z,22.40
2022-08-18T06:19:25.217Z,22.58
2022-08-18T06:22:00.521Z,22.64
2022-08-18T06:24:37.606Z,22.53
2022-08-18T06:27:22.209Z,22.58
2022-08-18T06:30:04.866Z,22.91
2022-08-18T06:32:31.299Z,22.77
2022-08-18T06:35:19.547Z,22.51
2022-08-18T06:38:23.469Z,21.90
2022-08-18T06:40:57.406Z,22.39
2022-08-18T06:43:23.899Z,22.70
2022-08-18T06:45:52.296Z,22.80
2022-08-18T06:48:35.431Z,22.91
2022-08-18T06:51:03.494Z,22.94
2022-08-18T06:53:59.665Z,23.19
2022-08-18T06:56:39.809Z,22.91
2022-08-18T06:59:21.543Z,23.38
2022-08-18T07:01:54.723Z,23.41
2022-08-18T07:04:39.625Z,23.30
2022-08-18T07:07:18.741Z,23.42
2022-08-18T07:09:45.391Z,23.35
2022-08-18T07:12:19.689Z,23.62
2022-08-18T07:14:50.435Z,23.57
2022-08-18T07:17:43.112Z,23.82
2022-08-18T07:20:24.356Z,23.72
2022-08-18T07:22:59.649Z,24.00
2022-08-18T07:25:32.546Z,24.06
2022-08-18T07:28:01.860Z,24.30
2022-08-18T07:30:36.089Z,24.36
2022-08-18T07:33:19.880Z,24.58
2022-08-18T07:35:49.526Z,24.57
2022-08-18T07:38:43.574Z,25.02
2022-08-18T07:41:20.568Z,25.29
2022-08-18T07:43:51.695Z,25.69
2022-08-18T07:46:50.477Z,25.71
2022-08-18T07:49:22.326Z,25.70
2022-08-18T07:51:57.193Z,26.08
2022-08-18T07:54:49.513Z,26.33
2022-08-18T07:57:25.824Z,25.92
2022-08-18T08:00:04.636Z,25.97
2022-08-18T08:02:54.897Z,26.11
2022-08-18T08:05:33.933Z,26.24
2022-08-18T08:08:06.229Z,26.69
2022-08-18T08:10:43.528Z,26.91
2022-08-18T08:14:01.249Z,26.86
2022-08-18T08:16:49.814Z,26.92
2022-08-18T08:19:59.093Z,26.88
2022-08-18T08:22:29.951Z,26.84
2022-08-18T08:25:44.706Z,26.33
2022-08-18T08:28:09.572Z,26.41
2022-08-18T08:30:49.384Z,26.85
2022-08-18T08:33:28.938Z,27.11
2022-08-18T08:36:08.336Z,26.78
2022-08-18T08:38:47.669Z,27.10
2022-08-18T08:41:20.026Z,27.05
2022-08-18T08:43:56.870Z,27.08
2022-08-18T08:46:26.207Z,26.53
2022-08-18T08:49:22.954Z,27.13
2022-08-18T08:51:57.934Z,26.68
2022-08-18T08:54:36.418Z,27.03
2022-08-18T08:57:04.203Z,27.76
2022-08-18T08:59:30.918Z,27.73
2022-08-18T09:02:46.885Z,28.18
2022-08-18T09:05:12.132Z,28.20
2022-08-18T09:08:06.989Z,27.00
2022-08-18T09:10:53.703Z,26.22
2022-08-18T09:13:47.106Z,25.49
2022-08-18T09:16:34.193Z,24.81
2022-08-18T09:19:19.159Z,25.73
2022-08-18T09:22:01.514Z,26.25
2022-08-18T09:24:31.959Z,25.71
2022-08-18T09:27:05.672Z,26.38
2022-08-18T09:29:44.245Z,26.48
2022-08-18T09:32:20.122Z,26.70
2022-08-18T09:35:20.179Z,26.24
2022-08-18T09:38:12.320Z,25.90
2022-08-18T09:41:13.286Z,25.60
2022-08-18T09:44:21.351Z,25.60
2022-08-18T09:46:55.905Z,26.01
2022-08-18T09:49:22.541Z,26.64
2022-08-18T09:51:51.160Z,26.32
2022-08-18T09:54:25.174Z,26.25
2022-08-18T09:56:54.560Z,26.32
2022-08-18T09:59:35.080Z,26.05
2022-08-18T10:02:20.344Z,25.75
2022-08-18T10:05:16.773Z,25.42
2022-08-18T10:07:44.260Z,25.56
2022-08-18T10:11:01.537Z,25.75
2022-08-18T10:13:29.729Z,25.98
2022-08-18T10:16:26.052Z,26.55
2022-08-18T10:19:00.729Z,26.64
2022-08-18T10:21:31.271Z,26.75
2022-08-18T10:24:31.799Z,27.15
2022-08-18T10:26:54.229Z,26.92
2022-08-18T10:29:24.865Z,28.01
2022-08-18T10:31:57.796Z,27.91
2022-08-18T10:34:28.174Z,27.73
2022-08-18T10:36:59.512Z,27.67
2022-08-18T10:39:41.290Z,27.33
2022-08-18T10:42:30.977Z,27.71
2022-08-18T10:45:12.623Z,27.88
2022-08-18T10:47:42.762Z,27.55
2022-08-18T10:50:22.605Z,27.59
2022-08-18T10:53:24.104Z,27.19
2022-08-18T10:55:51.709Z,27.51
2022-08-18T10:58:30.391Z,27.28
2022-08-18T11:01:05.996Z,27.16
2022-08-18T11:03:51.603Z,27.52
2022-08-18T11:06:25.924Z,27.16
2022-08-18T11:09:01.587Z,27.28
2022-08-18T11:11:38.994Z,26.79
2022-08-18T11:14:37.351Z,26.70
2022-08-18T11:17:26.866Z,27.67
2022-08-18T11:19:54.108Z,27.37
2022-08-18T11:22:31.369Z,27.08
2022-08-18T11:25:04.299Z,27.00
2022-08-18T11:27:39.782Z,26.51
2022-08-18T11:30:07.606Z,26.01
2022-08-18T11:35:32.823Z,25.44
2022-08-18T11:38:03.538Z,25.55
2022-08-18T11:43:41.374Z,25.30
2022-08-18T11:46:24.942Z,24.99
2022-08-18T11:48:54.884Z,25.02
2022-08-18T11:51:28.562Z,24.96
2022-08-18T11:54:00.165Z,24.68
2022-08-18T11:56:38.116Z,24.45
2022-08-18T11:59:07.914Z,24.72
2022-08-18T12:01:42.190Z,25.13
2022-08-18T12:04:22.095Z,25.38
2022-08-18T12:07:04.420Z,25.24
2022-08-18T12:10:17.440Z,26.57
2022-08-18T12:12:28.394Z,27.27
2022-08-18T12:15:01.078Z,27.54
2022-08-18T12:17:33.205Z,27.72
2022-08-18T12:20:02.305Z,27.29
2022-08-18T12:22:33.830Z,27.33
2022-08-18T12:25:03.603Z,27.29
2022-08-18T12:27:39.746Z,27.04
2022-08-18T12:30:08.187Z,27.25
2022-08-18T12:32:56.092Z,27.56
2022-08-18T12:35:28.325Z,27.58
2022-08-18T12:38:00.372Z,27.51
2022-08-18T12:40:31.867Z,27.30
2022-08-18T12:42:58.422Z,28.36
2022-08-18T12:45:27.115Z,27.75
2022-08-18T12:47:54.492Z,28.50
2022-08-18T12:50:21.064Z,28.37
2022-08-18T12:52:58.728Z,27.28
2022-08-18T12:55:25.915Z,27.12
2022-08-18T12:57:53.825Z,27.63
2022-08-18T13:00:21.317Z,26.96
2022-08-18T13:02:55.867Z,27.24
2022-08-18T13:05:27.637Z,27.52
2022-08-18T13:08:03.991Z,28.72
2022-08-18T13:10:42.952Z,29.16
2022-08-18T13:13:12.098Z,29.48
2022-08-18T13:15:38.736Z,28.81
2022-08-18T13:18:14.383Z,29.09
2022-08-18T13:20:42.323Z,28.61
2022-08-18T13:23:12.032Z,27.84
2022-08-18T13:25:39.884Z,28.68
2022-08-18T13:28:06.720Z,27.45
2022-08-18T13:30:33.361Z,28.33
2022-08-18T13:33:06.012Z,28.01
2022-08-18T13:35:52.408Z,27.17
2022-08-18T13:38:26.084Z,27.41
2022-08-18T13:40:56.577Z,28.88
2022-08-18T13:43:30.197Z,29.08
2022-08-18T13:45:56.698Z,28.44
2022-08-18T13:48:26.817Z,28.32
2022-08-18T13:50:55.700Z,27.73
2022-08-18T13:53:23.721Z,27.95
2022-08-18T13:55:51.584Z,27.83
2022-08-18T13:58:20.797Z,28.27
2022-08-18T14:00:52.382Z,28.19
2022-08-18T14:03:42.216Z,27.53
2022-08-18T14:06:09.589Z,27.28
2022-08-18T14:08:40.349Z,28.10
2022-08-18T14:11:07.118Z,28.79
2022-08-18T14:13:43.529Z,27.76
2022-08-18T14:16:11.105Z,26.95
2022-08-18T14:19:05.202Z,27.14
2022-08-18T14:22:04.575Z,26.60
2022-08-18T14:24:51.600Z,26.77
2022-08-18T14:27:19.731Z,26.23
2022-08-18T14:29:48.898Z,26.24
2022-08-18T14:32:28.446Z,27.13
2022-08-18T14:35:33.506Z,26.22
2022-08-18T14:37:48.557Z,27.15
2022-08-18T14:40:15.636Z,27.50
2022-08-18T14:42:54.093Z,27.08
2022-08-18T14:45:28.111Z,27.14
2022-08-18T14:48:06.604Z,26.48
2022-08-18T14:50:35.208Z,26.70
2022-08-18T14:53:01.996Z,26.10
2022-08-18T14:55:28.488Z,27.35
2022-08-18T14:57:59.466Z,27.83
2022-08-18T15:00:27.342Z,27.83
2022-08-18T15:02:54.373Z,28.48
2022-08-18T15:05:24.337Z,28.11
2022-08-18T15:07:52.191Z,27.55
2022-08-18T15:10:23.418Z,26.59
2022-08-18T15:12:54.397Z,26.84
2022-08-18T15:15:22.533Z,26.34
2022-08-18T15:17:52.490Z,26.30
2022-08-18T15:20:23.882Z,27.27
2022-08-18T15:23:14.716Z,26.67
2022-08-18T15:25:45.085Z,26.87
2022-08-18T15:28:16.401Z,27.60
2022-08-18T15:30:51.138Z,27.32
2022-08-18T15:33:23.532Z,27.03
2022-08-18T15:35:53.594Z,27.30
2022-08-18T15:38:21.897Z,26.99
2022-08-18T15:40:57.198Z,27.21
2022-08-18T15:43:25.465Z,27.29
2022-08-18T15:45:59.138Z,27.50
2022-08-18T15:48:27.209Z,27.19
2022-08-18T15:50:54.789Z,27.75
2022-08-18T15:53:29.908Z,27.39
2022-08-18T15:55:57.904Z,26.50
2022-08-18T15:58:26.973Z,26.54
2022-08-18T16:00:56.270Z,27.29
2022-08-18T16:03:25.462Z,27.01
2022-08-18T16:05:54.222Z,26.42
2022-08-18T16:08:24.829Z,26.51
2022-08-18T16:10:52.958Z,26.67
2022-08-18T16:13:20.028Z,26.73
2022-08-18T16:15:48.432Z,26.28
2022-08-18T16:18:17.192Z,26.43
2022-08-18T16:20:44.662Z,26.51
2022-08-18T16:23:15.550Z,26.22
2022-08-18T16:25:43.293Z,26.26
2022-08-18T16:28:10.739Z,26.27
2022-08-18T16:30:37.436Z,26.50
2022-08-18T16:33:06.500Z,26.31
2022-08-18T16:35:35.171Z,26.24
2022-08-18T16:38:04.544Z,26.62
2022-08-18T16:40:31.092Z,26.67
2022-08-18T16:43:00.605Z,26.24
2022-08-18T16:45:28.277Z,26.62
2022-08-18T16:47:55.299Z,26.74
2022-08-18T16:50:23.504Z,26.87
2022-08-18T16:52:50.173Z,26.46
2022-08-18T16:55:17.061Z,26.21
2022-08-18T16:58:03.259Z,26.49
2022-08-18T17:00:55.312Z,26.01
2022-08-18T17:03:42.572Z,25.93
2022-08-18T17:06:12.144Z,26.59
2022-08-18T17:08:40.750Z,26.22
2022-08-18T17:11:10.757Z,25.71
2022-08-18T17:13:39.679Z,25.44
2022-08-18T17:16:07.437Z,25.63
2022-08-18T17:18:34.093Z,25.58
2022-08-18T17:21:05.092Z,25.36
2022-08-18T17:23:32.415Z,25.25
2022-08-18T17:25:59.249Z,25.11
2022-08-18T17:28:39.501Z,25.05
2022-08-18T17:31:11.380Z,24.92
2022-08-18T17:33:40.815Z,25.29
2022-08-18T17:36:15.226Z,25.34
2022-08-18T17:38:49.408Z,24.96
2022-08-18T17:41:20.966Z,25.68
2022-08-18T17:43:47.926Z,25.60
2022-08-18T17:46:25.999Z,25.08
2022-08-18T17:48:57.243Z,25.86
2022-08-18T17:51:35.379Z,25.27
2022-08-18T17:54:27.956Z,24.91
2022-08-18T17:57:01.840Z,24.55
2022-08-18T17:59:45.267Z,25.08
2022-08-18T18:02:29.194Z,24.30
2022-08-18T18:04:58.743Z,25.04
2022-08-18T18:07:27.917Z,24.95
2022-08-18T18:10:03.597Z,24.91
2022-08-18T18:12:31.906Z,24.80
2022-08-18T18:14:59.592Z,24.67
2022-08-18T18:17:37.565Z,24.45
2022-08-18T18:20:37.978Z,24.37
2022-08-18T18:23:19.376Z,24.22
2022-08-18T18:25:46.094Z,24.06
2022-08-18T18:28:31.988Z,24.05
2022-08-18T18:31:00.910Z,24.16
2022-08-18T18:33:30.107Z,23.82
2022-08-18T18:35:59.815Z,24.09
2022-08-18T18:38:33.230Z,23.92
2022-08-18T18:41:03.890Z,23.71
2022-08-18T18:43:34.581Z,24.02
2022-08-18T18:46:07.981Z,24.31
2022-08-18T18:49:04.969Z,23.57
2022-08-18T18:51:38.632Z,23.75
2022-08-18T18:54:59.718Z,23.49
2022-08-18T18:57:38.149Z,23.35
2022-08-18T19:00:43.931Z,23.53
2022-08-18T19:03:24.867Z,23.13
2022-08-18T19:06:22.447Z,23.63
2022-08-18T19:09:08.667Z,23.31
2022-08-18T19:12:20.392Z,22.76
2022-08-18T19:15:09.021Z,22.57
2022-08-18T19:20:12.753Z,22.87
2022-08-18T19:22:59.180Z,22.47
2022-08-18T19:25:30.102Z,22.86
2022-08-18T19:28:28.522Z,22.81
2022-08-18T19:30:57.524Z,22.51
2022-08-18T19:33:28.592Z,22.43
2022-08-18T19:36:23.445Z,22.43
2022-08-18T19:39:17.580Z,22.54
2022-08-18T19:41:49.689Z,22.48
2022-08-18T19:44:37.529Z,22.08
2022-08-18T19:47:20.668Z,21.85
2022-08-18T19:50:16.278Z,22.19
2022-08-18T19:53:04.969Z,22.36
2022-08-18T19:55:35.422Z,22.16
2022-08-18T19:58:21.936Z,22.33
2022-08-18T20:00:57.772Z,22.33
2022-08-18T20:03:56.540Z,22.18
2022-08-18T20:06:49.950Z,22.33
2022-08-18T20:09:39.423Z,21.89
2022-08-18T20:12:25.393Z,21.88
2022-08-18T20:15:00.948Z,21.95
2022-08-18T20:17:29.037Z,21.86
2022-08-18T20:19:57.395Z,21.96
2022-08-18T20:22:24.435Z,21.61
2022-08-18T20:25:15.178Z,21.53
2022-08-18T20:27:42.977Z,21.71
2022-08-18T20:30:21.824Z,21.93
2022-08-18T20:33:15.135Z,21.91
2022-08-18T20:36:19.663Z,21.68
2022-08-18T20:38:51.494Z,22.12
2022-08-18T20:41:28.643Z,22.14
2022-08-18T20:44:28.882Z,22.13
2022-08-18T20:47:21.316Z,22.27
2022-08-18T20:50:20.245Z,22.48
2022-08-18T20:53:01.222Z,22.10
2022-08-18T20:55:38.442Z,22.78
2022-08-18T20:58:14.641Z,22.15
2022-08-18T21:00:44.767Z,22.84
2022-08-18T21:03:15.660Z,22.81
2022-08-18T21:05:45.908Z,23.02
2022-08-18T21:08:19.829Z,23.00
2022-08-18T21:10:59.830Z,22.94
2022-08-18T21:13:57.213Z,22.15
2022-08-18T21:16:37.846Z,22.59
2022-08-18T21:19:17.901Z,22.21
2022-08-18T21:22:00.157Z,22.03
2022-08-18T21:24:44.932Z,22.23
2022-08-18T21:27:20.609Z,22.26
2022-08-18T21:29:49.310Z,22.28
2022-08-18T21:32:24.320Z,21.99
2022-08-18T21:34:51.087Z,21.96
2022-08-18T21:37:18.621Z,21.76
2022-08-18T21:39:49.569Z,21.68
2022-08-18T21:42:23.029Z,21.49
2022-08-18T21:44:54.598Z,21.72
2022-08-18T21:47:26.140Z,21.58
2022-08-18T21:50:11.261Z,21.70
2022-08-18T21:52:51.771Z,21.63
2022-08-18T21:55:30.364Z,21.71
2022-08-18T21:58:08.525Z,21.71
2022-08-18T22:00:44.319Z,21.80
2022-08-18T22:03:25.862Z,21.76
2022-08-18T22:06:00.713Z,21.22
2022-08-18T22:08:30.985Z,21.70
2022-08-18T22:11:36.387Z,21.96
2022-08-18T22:14:30.118Z,21.58
2022-08-18T22:17:28.723Z,21.38
2022-08-18T22:19:55.472Z,21.32
2022-08-18T22:22:41.260Z,21.47
2022-08-18T22:25:11.834Z,21.39
2022-08-18T22:27:38.368Z,21.37
2022-08-18T22:30:05.469Z,20.99
2022-08-18T22:32:34.593Z,21.20
2022-08-18T22:35:02.106Z,21.25
2022-08-18T22:37:32.540Z,21.22
2022-08-18T22:40:10.286Z,21.64
2022-08-18T22:42:37.280Z,21.41
2022-08-18T22:45:08.602Z,21.07
2022-08-18T22:47:43.697Z,21.47
2022-08-18T22:50:12.707Z,21.14
2022-08-18T22:52:46.446Z,21.10
2022-08-18T22:55:14.884Z,21.43
2022-08-18T22:57:46.910Z,21.49
2022-08-18T23:00:17.454Z,21.11
2022-08-18T23:02:47.725Z,20.98
2022-08-18T23:05:14.851Z,21.57
2022-08-18T23:07:42.586Z,21.64
2022-08-18T23:10:13.940Z,21.42
2022-08-18T23:12:43.061Z,21.63
2022-08-18T23:15:11.355Z,21.62
2022-08-18T23:17:39.017Z,21.30
2022-08-18T23:20:11.355Z,21.21
2022-08-18T23:22:38.741Z,21.58
2022-08-18T23:25:09.123Z,21.86
2022-08-18T23:27:36.541Z,21.07
2022-08-18T23:30:04.207Z,21.56
2022-08-18T23:32:31.970Z,21.52
2022-08-18T23:34:58.980Z,21.40
2022-08-18T23:37:25.447Z,21.49
2022-08-18T23:39:52.046Z,21.54
2022-08-18T23:42:18.601Z,21.73
2022-08-18T23:44:49.752Z,21.76
2022-08-18T23:47:18.544Z,21.57
2022-08-18T23:49:45.052Z,21.80
2022-08-18T23:52:11.545Z,21.74
2022-08-18T23:54:38.113Z,21.61
2022-08-18T23:57:04.794Z,21.58
2022-08-18T23:59:31.373Z,21.49
